PWSweather.com
Personal Weather Stations
Station Observations

AwhituWaiuku, CA 268400

Lat: -37.058, Lon: -174.6346

Elevation: 250

Station Type: Personal

http://www.weather-display.com/windy/gb/grahamsbeach.htm

Latest ConditionsUpdated 6:30:02 PM GMT-12:48 Tuesday, Apr 24, 2018
Currently Today's Max Today's Min Today's Average
Temperature 59.5°F15.3°C 67.3°F19.6°C 56.9°F13.8°C 61.5°F16.4°C
Dew Point 52.3°F11.3°C 56.8°F13.8°C 51.5°F10.8°C 53.7°F12.1°C
Winds 5.8 mph SSW9.3 kmh SSW 12.7 mph WSW20.4 kmh WSW - 7.9 mph 12.7 kmh
Wind Gusts 5.8 mph9.3 kmh 17.3 mph27.8 kmh - -
Humidity 77% 87% 66% 76%
Pressure 30.15 in1021.0 mb 30.15 in1021.0 mb 30.10 in1019.3 mb -
Precipitation - 0.05 in1.3 mm - -
Hour Temp Dew Point Humidity Winds Wind Gusts Pressure Precip Precip Rate Daily Precip Total
06:30 PM 59.5°F15.3°C 52.3°F11.3°C 77% 5.8 mph SSW9.3 kmh SSW 5.8 mph9.3 kmh 30.15 in1021.0 mb - 0.00 in0.0 mm 0.05 in1.3 mm
06:00 PM 59.9°F15.5°C 51.6°F10.9°C 74% 6.9 mph S11.1 kmh S 10.4 mph16.7 kmh 30.14 in1020.7 mb - 0.00 in0.0 mm 0.05 in1.3 mm
05:30 PM 61.0°F16.1°C 51.9°F11.1°C 72% 3.5 mph S5.6 kmh S 4.6 mph7.4 kmh 30.14 in1020.7 mb - 0.00 in0.0 mm 0.05 in1.3 mm
05:00 PM 62.0°F16.7°C 52.5°F11.4°C 71% 6.9 mph SSE11.1 kmh SSE 8.1 mph13.0 kmh 30.13 in1020.3 mb - 0.00 in0.0 mm 0.05 in1.3 mm
04:30 PM 63.2°F17.3°C 54.1°F12.3°C 72% 9.2 mph SSW14.8 kmh SSW 12.7 mph20.4 kmh 30.12 in1020.0 mb - 0.00 in0.0 mm 0.05 in1.3 mm
04:00 PM 65.4°F18.6°C 55.0°F12.8°C 69% 8.1 mph S13.0 kmh S 13.8 mph22.2 kmh 30.12 in1020.0 mb - 0.00 in0.0 mm 0.05 in1.3 mm
03:30 PM 65.8°F18.8°C 55.0°F12.8°C 68% 9.2 mph SW14.8 kmh SW 12.7 mph20.4 kmh 30.12 in1020.0 mb - 0.00 in0.0 mm 0.05 in1.3 mm
03:00 PM 65.6°F18.7°C 54.8°F12.7°C 68% 6.9 mph SSE11.1 kmh SSE 11.5 mph18.5 kmh 30.11 in1019.6 mb - 0.00 in0.0 mm 0.05 in1.3 mm
02:30 PM 66.3°F19.1°C 55.0°F12.8°C 67% 9.2 mph SE14.8 kmh SE 12.7 mph20.4 kmh 30.11 in1019.6 mb - 0.00 in0.0 mm 0.05 in1.3 mm
02:00 PM 66.5°F19.2°C 56.0°F13.3°C 69% 6.9 mph SSW11.1 kmh SSW 11.5 mph18.5 kmh 30.12 in1020.0 mb - 0.00 in0.0 mm 0.05 in1.3 mm
01:30 PM 67.3°F19.6°C 55.6°F13.1°C 66% 10.4 mph SW16.7 kmh SW 12.7 mph20.4 kmh 30.12 in1020.0 mb - 0.00 in0.0 mm 0.05 in1.3 mm
01:00 PM 67.3°F19.6°C 56.8°F13.8°C 69% 9.2 mph SW14.8 kmh SW 15.0 mph24.1 kmh 30.12 in1020.0 mb - 0.00 in0.0 mm 0.05 in1.3 mm
12:30 PM 66.7°F19.3°C 55.4°F13.0°C 67% 6.9 mph SW11.1 kmh SW 11.5 mph18.5 kmh 30.14 in1020.7 mb - 0.00 in0.0 mm 0.05 in1.3 mm
12:00 PM 66.5°F19.2°C 56.0°F13.3°C 69% 11.5 mph SW18.5 kmh SW 15.0 mph24.1 kmh 30.14 in1020.7 mb - 0.00 in0.0 mm 0.05 in1.3 mm
11:30 AM 65.9°F18.8°C 55.1°F12.8°C 68% 9.2 mph SW14.8 kmh SW 15.0 mph24.1 kmh 30.15 in1021.0 mb - 0.00 in0.0 mm 0.05 in1.3 mm
11:00 AM 65.5°F18.6°C 55.1°F12.8°C 69% 11.5 mph SSW18.5 kmh SSW 13.8 mph22.2 kmh 30.15 in1021.0 mb - 0.00 in0.0 mm 0.05 in1.3 mm
10:30 AM 64.4°F18.0°C 55.2°F12.9°C 72% 9.2 mph SW14.8 kmh SW 11.5 mph18.5 kmh 30.15 in1021.0 mb - 0.00 in0.0 mm 0.05 in1.3 mm
10:00 AM 64.2°F17.9°C 55.0°F12.8°C 72% 8.1 mph SW13.0 kmh SW 10.4 mph16.7 kmh 30.15 in1021.0 mb - 0.00 in0.0 mm 0.05 in1.3 mm
09:30 AM 62.9°F17.2°C 54.5°F12.5°C 74% 9.2 mph S14.8 kmh S 12.7 mph20.4 kmh 30.15 in1021.0 mb - 0.00 in0.0 mm 0.05 in1.3 mm
09:00 AM 62.5°F16.9°C 55.2°F12.9°C 77% 10.4 mph SSW16.7 kmh SSW 13.8 mph22.2 kmh 30.14 in1020.7 mb - 0.00 in0.0 mm 0.05 in1.3 mm
08:30 AM 60.1°F15.6°C 53.6°F12.0°C 79% 5.8 mph SW9.3 kmh SW 8.1 mph13.0 kmh 30.14 in1020.7 mb - 0.00 in0.0 mm 0.05 in1.3 mm
08:00 AM 58.8°F14.9°C 53.0°F11.7°C 81% 9.2 mph SSW14.8 kmh SSW 13.8 mph22.2 kmh 30.13 in1020.3 mb - 0.00 in0.0 mm 0.05 in1.3 mm
07:30 AM 58.6°F14.8°C 53.2°F11.8°C 82% 8.1 mph S13.0 kmh S 11.5 mph18.5 kmh 30.12 in1020.0 mb - 0.00 in0.0 mm 0.05 in1.3 mm
07:00 AM 57.9°F14.4°C 54.1°F12.3°C 87% 5.8 mph SW9.3 kmh SW 5.8 mph9.3 kmh 30.12 in1020.0 mb - 0.04 in1.0 mm 0.05 in1.3 mm
06:30 AM 58.0°F14.4°C 54.1°F12.3°C 87% 5.8 mph SSW9.3 kmh SSW 8.1 mph13.0 kmh 30.11 in1019.6 mb - 0.04 in1.0 mm 0.05 in1.3 mm
06:00 AM 59.0°F15.0°C 54.5°F12.5°C 85% 4.6 mph SSW7.4 kmh SSW 4.6 mph7.4 kmh 30.11 in1019.6 mb - 0.00 in0.0 mm 0.01 in0.3 mm
05:30 AM 59.6°F15.3°C 53.8°F12.1°C 81% 6.9 mph S11.1 kmh S 10.4 mph16.7 kmh 30.11 in1019.6 mb - 0.00 in0.0 mm 0.01 in0.3 mm
05:00 AM 58.7°F14.8°C 52.2°F11.2°C 79% 8.1 mph WSW13.0 kmh WSW 13.8 mph22.2 kmh 30.11 in1019.6 mb - 0.00 in0.0 mm 0.01 in0.3 mm
04:30 AM 58.1°F14.5°C 52.6°F11.4°C 82% 5.8 mph SW9.3 kmh SW 8.1 mph13.0 kmh 30.10 in1019.3 mb - 0.00 in0.0 mm 0.01 in0.3 mm
04:00 AM 57.4°F14.1°C 51.9°F11.1°C 82% 9.2 mph WSW14.8 kmh WSW 11.5 mph18.5 kmh 30.10 in1019.3 mb - 0.00 in0.0 mm 0.01 in0.3 mm
03:30 AM 57.3°F14.1°C 52.8°F11.6°C 85% 12.7 mph WSW20.4 kmh WSW 17.3 mph27.8 kmh 30.10 in1019.3 mb - 0.00 in0.0 mm 0.01 in0.3 mm
03:00 AM 56.9°F13.8°C 52.1°F11.2°C 84% 6.9 mph SW11.1 kmh SW 6.9 mph11.1 kmh 30.11 in1019.6 mb - 0.00 in0.0 mm 0.01 in0.3 mm
02:30 AM 57.2°F14.0°C 52.4°F11.3°C 84% 3.5 mph S5.6 kmh S 6.9 mph11.1 kmh 30.12 in1020.0 mb - 0.00 in0.0 mm 0.01 in0.3 mm
02:00 AM 57.3°F14.1°C 52.2°F11.2°C 83% 5.8 mph S9.3 kmh S 9.2 mph14.8 kmh 30.12 in1020.0 mb - 0.01 in0.3 mm 0.01 in0.3 mm
01:30 AM 58.0°F14.4°C 51.9°F11.1°C 80% 6.9 mph SSW11.1 kmh SSW 10.4 mph16.7 kmh 30.13 in1020.3 mb - 0.01 in0.3 mm 0.01 in0.3 mm
01:00 AM 59.6°F15.3°C 52.4°F11.3°C 77% 10.4 mph SSW16.7 kmh SSW 13.8 mph22.2 kmh 30.13 in1020.3 mb - 0.00 in0.0 mm 0.00 in0.0 mm
12:30 AM 58.7°F14.8°C 51.9°F11.1°C 78% 9.2 mph SW14.8 kmh SW 11.5 mph18.5 kmh 30.12 in1020.0 mb - 0.00 in0.0 mm 0.00 in0.0 mm
12:00 AM 58.0°F14.4°C 51.5°F10.8°C 79% 6.9 mph S11.1 kmh S 9.2 mph14.8 kmh 30.12 in1020.0 mb - 0.00 in0.0 mm 0.00 in0.0 mm